Time;durP1;ratioP1;P1;durP2;ratioP2;P2;SDS_P1;SDS_P2;PMS_P1;PMS_P2;Temp;Humidity;BMP_temperature;BMP_pressure;BME280_temperature;BME280_humidity;BME280_pressure;Samples;Min_cycle;Max_cycle;Signal;HPM_P1;HPM_P2
2022/09/11 00:01:00;;;;;;;0.68;0.40;;;;;;;21.72;47.96;97927.37;4486053;31;20084;-77
2022/09/11 00:03:28;;;;;;;0.93;0.50;;;;;;;21.55;48.31;97925.41;4486933;31;20096;-77
2022/09/11 00:05:55;;;;;;;0.30;0.30;;;;;;;21.36;49.23;97923.59;4486326;31;20111;-78
2022/09/11 00:08:23;;;;;;;1.55;0.50;;;;;;;21.25;49.27;97924.50;4486032;32;20116;-77
2022/09/11 00:10:50;;;;;;;0.40;0.40;;;;;;;21.67;48.09;97919.06;4486762;31;20139;-77
2022/09/11 00:13:20;;;;;;;1.12;0.40;;;;;;;21.67;48.33;97921.69;4487238;31;20115;-77
2022/09/11 00:15:49;;;;;;;1.37;0.50;;;;;;;21.70;48.02;97920.59;4487113;31;20438;-77
2022/09/11 00:18:22;;;;;;;2.42;0.50;;;;;;;21.41;49.00;97920.56;4486429;31;20092;-77
2022/09/11 00:20:52;;;;;;;1.08;0.50;;;;;;;21.87;47.59;97907.59;4486992;31;20092;-77
2022/09/11 00:23:21;;;;;;;1.17;0.60;;;;;;;21.52;48.32;97910.78;4486702;31;20093;-77
2022/09/11 00:25:48;;;;;;;1.20;0.50;;;;;;;20.86;50.07;97909.66;4485621;32;20383;-77
2022/09/11 00:28:18;;;;;;;0.57;0.50;;;;;;;20.40;51.33;97906.50;4485929;32;20381;-77
2022/09/11 00:30:47;;;;;;;1.08;0.55;;;;;;;20.82;50.75;97909.06;4486587;31;20092;-77
2022/09/11 00:33:14;;;;;;;1.45;0.40;;;;;;;20.32;52.16;97906.34;4485763;32;20548;-77
2022/09/11 00:35:41;;;;;;;1.05;0.52;;;;;;;20.84;50.78;97906.31;4486698;32;20717;-77
2022/09/11 00:38:08;;;;;;;0.60;0.60;;;;;;;20.51;51.34;97903.84;4486589;31;20103;-77
2022/09/11 00:40:45;;;;;;;0.60;0.60;;;;;;;21.14;50.26;97901.00;4486893;31;20135;-78
2022/09/11 00:43:16;;;;;;;1.02;0.47;;;;;;;21.29;49.55;97904.13;4486734;32;20196;-77
2022/09/11 00:45:44;;;;;;;0.73;0.60;;;;;;;21.26;49.32;97902.56;4486325;31;20161;-77
2022/09/11 00:48:14;;;;;;;1.40;0.50;;;;;;;20.79;50.22;97899.69;4486673;31;20157;-77
2022/09/11 00:50:42;;;;;;;1.62;0.45;;;;;;;20.32;51.82;97890.63;4485358;32;20084;-77
2022/09/11 00:53:10;;;;;;;0.50;0.50;;;;;;;20.25;52.27;97888.66;4486163;31;20355;-77
2022/09/11 00:55:40;;;;;;;0.60;0.35;;;;;;;20.25;52.39;97878.19;4485332;32;20104;-77
2022/09/11 00:58:13;;;;;;;0.85;0.50;;;;;;;19.87;53.36;97887.44;4485304;32;20157;-77
2022/09/11 01:00:42;;;;;;;2.00;0.68;;;;;;;19.67;54.34;97872.56;4486137;31;20377;-77
2022/09/11 01:03:09;;;;;;;4.18;0.70;;;;;;;19.53;55.01;97877.09;4485259;32;20098;-77
2022/09/11 01:05:39;;;;;;;0.82;0.40;;;;;;;19.56;55.28;97874.25;4485890;31;20461;-77
2022/09/11 01:08:07;;;;;;;1.30;0.60;;;;;;;20.12;53.64;97875.78;4486512;31;20096;-78
2022/09/11 01:10:55;;;;;;;0.50;0.50;;;;;;;19.65;54.87;97876.13;4486225;31;20408;-77
2022/09/11 01:13:28;;;;;;;0.73;0.50;;;;;;;19.84;54.32;97867.59;4486028;31;20073;-77
2022/09/11 01:16:24;;;;;;;1.20;0.50;;;;;;;20.22;53.44;97869.63;4486295;31;20119;-77
2022/09/11 01:19:11;;;;;;;1.50;0.68;;;;;;;19.54;55.29;97881.38;4480459;32;20116;-77
2022/09/11 01:21:51;;;;;;;0.50;0.50;;;;;;;20.13;53.10;97886.12;4486831;31;20148;-77
2022/09/11 01:24:42;;;;;;;1.27;0.60;;;;;;;20.51;52.51;97887.28;4488381;31;20080;-77
2022/09/11 01:27:30;;;;;;;1.15;0.65;;;;;;;20.49;52.67;97881.34;4486946;32;20150;-78
2022/09/11 01:30:03;;;;;;;0.57;0.57;;;;;;;20.15;53.66;97878.94;4487264;32;20100;-77
2022/09/11 01:33:02;;;;;;;1.48;0.60;;;;;;;20.54;52.56;97880.97;4488483;31;20099;-77
2022/09/11 01:35:43;;;;;;;0.32;0.32;;;;;;;20.54;52.67;97880.97;4486761;32;20076;-77
2022/09/11 01:38:30;;;;;;;2.15;0.55;;;;;;;20.31;53.42;97877.62;4487220;32;20169;-77
2022/09/11 01:41:07;;;;;;;4.95;2.20;;;;;;;19.91;53.99;97884.47;4488060;31;20124;-77
2022/09/11 01:43:50;;;;;;;2.17;0.60;;;;;;;20.13;53.77;97893.16;4487268;32;20088;-77
2022/09/11 01:46:23;;;;;;;0.57;0.47;;;;;;;20.17;53.83;97884.06;4487075;32;20103;-77
2022/09/11 01:48:57;;;;;;;0.55;0.50;;;;;;;20.10;54.25;97886.38;4486875;32;20105;-77
2022/09/11 01:51:28;;;;;;;0.40;0.40;;;;;;;20.01;54.16;97881.91;4487109;31;20112;-77
2022/09/11 01:53:58;;;;;;;0.90;0.60;;;;;;;20.00;54.42;97890.72;4488179;31;20161;-77
2022/09/11 01:56:36;;;;;;;0.73;0.60;;;;;;;20.09;54.27;97884.69;4486728;32;20439;-77
2022/09/11 01:59:08;;;;;;;0.30;0.30;;;;;;;19.33;56.31;97883.97;4487077;32;20104;-77
2022/09/11 02:01:37;;;;;;;0.55;0.30;;;;;;;19.01;57.19;97886.53;4487910;31;20122;-78
2022/09/11 02:04:24;;;;;;;0.68;0.50;;;;;;;19.53;55.94;97879.72;4473802;32;20092;-77
2022/09/11 02:07:01;;;;;;;2.42;0.60;;;;;;;20.85;51.67;97887.03;4486949;32;20138;-77
2022/09/11 02:09:33;;;;;;;0.65;0.55;;;;;;;21.01;50.69;97887.31;4486699;32;20109;-77
2022/09/11 02:12:03;;;;;;;1.60;0.50;;;;;;;20.60;51.70;97881.25;4486906;32;20153;-77
2022/09/11 02:14:39;;;;;;;0.55;0.55;;;;;;;20.84;51.15;97878.31;4487964;31;20160;-78
2022/09/11 02:17:14;;;;;;;1.17;0.50;;;;;;;21.17;50.36;97881.56;4486452;31;20077;-78
2022/09/11 02:19:42;;;;;;;0.73;0.50;;;;;;;20.46;52.20;97884.25;4488146;31;20088;-78
2022/09/11 02:22:09;;;;;;;0.47;0.47;;;;;;;20.79;51.74;97873.47;4487872;31;20111;-77
2022/09/11 02:24:36;;;;;;;0.47;0.43;;;;;;;20.76;51.20;97870.28;4486401;32;20107;-77
2022/09/11 02:27:06;;;;;;;2.05;0.68;;;;;;;21.11;50.28;97871.59;4487513;31;20072;-78
2022/09/11 02:29:33;;;;;;;0.93;0.62;;;;;;;20.05;53.83;97872.00;4488013;31;20436;-78
2022/09/11 02:32:02;;;;;;;0.60;0.60;;;;;;;18.72;58.66;97870.56;4486861;31;20100;-77
2022/09/11 02:34:33;;;;;;;1.23;0.40;;;;;;;19.06;57.60;97875.72;4487884;31;20092;-77
2022/09/11 02:37:25;;;;;;;2.80;0.47;;;;;;;19.50;56.08;97879.16;4487663;31;20549;-78
2022/09/11 02:40:13;;;;;;;0.93;0.70;;;;;;;20.56;52.75;97871.19;4488032;31;20153;-77
2022/09/11 02:42:47;;;;;;;1.42;0.45;;;;;;;20.76;51.58;97880.78;4487931;31;20348;-77
2022/09/11 02:45:22;;;;;;;1.10;0.40;;;;;;;20.08;53.08;97875.19;4486408;32;20141;-77
2022/09/11 02:48:01;;;;;;;0.82;0.57;;;;;;;18.67;58.20;97872.69;4487914;31;20370;-77
2022/09/11 02:50:38;;;;;;;0.50;0.50;;;;;;;17.93;61.46;97874.03;4487869;31;20115;-77
2022/09/11 02:53:23;;;;;;;2.95;0.50;;;;;;;18.53;59.73;97869.47;4487986;31;20455;-77
2022/09/11 02:56:12;;;;;;;2.35;0.60;;;;;;;19.21;57.45;97874.50;4487745;32;20092;-77
2022/09/11 02:58:43;;;;;;;2.03;0.75;;;;;;;19.15;57.43;97876.78;4486298;32;20103;-78
2022/09/11 03:01:10;;;;;;;0.52;0.50;;;;;;;18.65;59.09;97876.38;4486598;31;20092;-77
2022/09/11 03:03:39;;;;;;;5.40;0.80;;;;;;;20.35;53.53;97876.44;4487765;31;20102;-77
2022/09/11 03:06:09;;;;;;;0.47;0.47;;;;;;;20.98;51.03;97884.97;4487284;31;20163;-77
2022/09/11 03:08:36;;;;;;;0.68;0.50;;;;;;;20.51;52.27;97880.25;4486632;32;20084;-77
2022/09/11 03:11:03;;;;;;;2.30;0.62;;;;;;;20.82;51.60;97887.25;4487595;31;20108;-77
2022/09/11 03:13:30;;;;;;;2.53;0.68;;;;;;;19.58;55.55;97882.84;4487390;31;20140;-77
2022/09/11 03:15:59;;;;;;;1.42;0.57;;;;;;;19.03;56.90;97881.19;4487489;31;20088;-77
2022/09/11 03:18:26;;;;;;;2.12;0.80;;;;;;;18.85;58.21;97880.88;4486354;31;20098;-77
2022/09/11 03:20:53;;;;;;;4.32;0.65;;;;;;;18.49;60.06;97881.94;4487314;31;20225;-77
2022/09/11 03:23:20;;;;;;;0.45;0.45;;;;;;;19.30;57.16;97884.22;4487653;31;20394;-77
2022/09/11 03:25:47;;;;;;;2.30;0.90;;;;;;;18.14;61.03;97889.87;4486962;32;20430;-77
2022/09/11 03:28:14;;;;;;;1.02;0.40;;;;;;;19.49;56.56;97887.97;4487706;32;20094;-77
2022/09/11 03:30:41;;;;;;;1.55;0.50;;;;;;;18.92;58.35;97892.50;4487499;31;20112;-77
2022/09/11 03:33:08;;;;;;;1.10;0.60;;;;;;;19.12;57.34;97888.31;4487297;31;20093;-78
2022/09/11 03:35:35;;;;;;;1.85;0.45;;;;;;;19.11;57.68;97885.81;4487349;31;20092;-78
2022/09/11 03:38:02;;;;;;;2.35;0.62;;;;;;;19.02;57.89;97890.00;4487564;31;20076;-77
2022/09/11 03:40:29;;;;;;;0.62;0.60;;;;;;;19.50;56.58;97893.06;4485963;31;20123;-77
2022/09/11 03:42:55;;;;;;;1.62;0.70;;;;;;;18.41;60.75;97882.53;4487514;31;20160;-77
2022/09/11 03:45:22;;;;;;;2.30;0.65;;;;;;;18.66;59.62;97885.88;4487260;31;20394;-77
2022/09/11 03:47:49;;;;;;;0.75;0.40;;;;;;;18.79;59.39;97890.03;4486977;31;20084;-77
2022/09/11 03:50:16;;;;;;;1.35;0.65;;;;;;;19.52;57.02;97896.38;4487285;31;20187;-77
2022/09/11 03:52:43;;;;;;;1.50;0.60;;;;;;;20.07;54.54;97896.25;4487444;31;20426;-77
2022/09/11 03:55:10;;;;;;;0.93;0.55;;;;;;;20.65;52.88;97891.38;4486886;31;20092;-77
2022/09/11 03:57:40;;;;;;;0.93;0.40;;;;;;;21.05;51.40;97893.94;4487387;31;20072;-77
2022/09/11 04:00:08;;;;;;;1.30;0.70;;;;;;;21.13;50.42;97885.41;4487306;31;20431;-78
2022/09/11 04:02:35;;;;;;;0.82;0.60;;;;;;;21.05;51.01;97886.06;4485888;32;20113;-78
2022/09/11 04:05:03;;;;;;;1.85;0.70;;;;;;;21.36;50.01;97885.06;4487151;31;20152;-78
2022/09/11 04:07:30;;;;;;;1.40;0.60;;;;;;;21.53;49.30;97885.34;4487130;31;20080;-78
2022/09/11 04:09:57;;;;;;;1.62;0.50;;;;;;;20.62;51.98;97881.94;4486971;31;20101;-77
2022/09/11 04:12:24;;;;;;;1.02;0.47;;;;;;;19.31;56.23;97872.78;4485920;31;20165;-77
2022/09/11 04:14:51;;;;;;;0.70;0.50;;;;;;;18.37;59.44;97877.66;4486728;31;20097;-78
2022/09/11 04:17:18;;;;;;;1.95;0.57;;;;;;;19.07;57.96;97878.22;4487012;31;20072;-77
2022/09/11 04:19:45;;;;;;;2.70;0.70;;;;;;;18.93;58.77;97877.66;4487108;31;20096;-77
2022/09/11 04:22:12;;;;;;;2.92;0.60;;;;;;;19.40;56.98;97875.63;4486721;31;20104;-77
2022/09/11 04:24:39;;;;;;;1.60;0.80;;;;;;;19.68;56.05;97876.84;4486904;31;20521;-78
2022/09/11 04:27:06;;;;;;;5.65;0.70;;;;;;;19.75;55.74;97872.75;4486996;31;20099;-77
2022/09/11 04:29:33;;;;;;;0.40;0.37;;;;;;;19.87;55.40;97882.22;4486655;31;20093;-77
2022/09/11 04:32:00;;;;;;;0.98;0.57;;;;;;;19.51;56.11;97880.81;4486825;32;20100;-78
2022/09/11 04:34:27;;;;;;;1.73;0.60;;;;;;;19.74;55.79;97884.19;4486902;31;20084;-78
2022/09/11 04:36:54;;;;;;;0.73;0.47;;;;;;;19.61;56.38;97892.22;4486658;31;20076;-78
2022/09/11 04:39:22;;;;;;;1.33;0.60;;;;;;;19.47;56.57;97895.13;4486926;31;20088;-78
2022/09/11 04:41:48;;;;;;;1.67;0.62;;;;;;;19.42;57.03;97897.25;4486707;31;20096;-78
2022/09/11 04:44:15;;;;;;;1.83;0.60;;;;;;;19.60;56.62;97893.19;4486366;31;20096;-78
2022/09/11 04:46:43;;;;;;;0.88;0.57;;;;;;;19.63;55.92;97890.31;4485465;32;20072;-78
2022/09/11 04:49:10;;;;;;;3.47;0.80;;;;;;;20.02;55.13;97891.41;4486795;31;20093;-78
2022/09/11 04:51:38;;;;;;;0.70;0.57;;;;;;;19.42;57.39;97887.63;4487601;31;20145;-78
2022/09/11 04:54:05;;;;;;;0.62;0.62;;;;;;;18.73;60.29;97887.91;4488498;31;20383;-78
2022/09/11 04:56:36;;;;;;;2.40;0.70;;;;;;;20.94;53.32;97894.06;4487517;32;20072;-78
2022/09/11 04:59:08;;;;;;;0.60;0.60;;;;;;;21.55;51.09;97889.50;4488385;31;20112;-78
2022/09/11 05:01:35;;;;;;;3.35;0.73;;;;;;;22.49;48.47;97893.09;4488694;31;20424;-78
2022/09/11 05:04:02;;;;;;;0.90;0.68;;;;;;;22.35;49.01;97892.75;4488137;31;20093;-78
2022/09/11 05:06:29;;;;;;;0.68;0.50;;;;;;;23.53;45.68;97896.28;4488404;31;20517;-78
2022/09/11 05:09:03;;;;;;;3.35;1.50;;;;;;;23.17;46.29;97894.59;4488538;31;20096;-78
2022/09/11 05:11:30;;;;;;;1.62;0.77;;;;;;;23.30;46.92;97900.34;4487070;32;20116;-78
2022/09/11 05:14:00;;;;;;;2.40;0.70;;;;;;;23.66;45.79;97906.47;4488490;31;20115;-78
2022/09/11 05:16:29;;;;;;;1.80;0.80;;;;;;;23.83;44.72;97912.72;4487451;32;20465;-78
2022/09/11 05:18:56;;;;;;;0.93;0.40;;;;;;;24.23;43.74;97920.91;4488094;31;20088;-78
2022/09/11 05:21:25;;;;;;;0.65;0.60;;;;;;;24.88;42.44;97920.47;4487102;31;20105;-78
2022/09/11 05:23:54;;;;;;;0.90;0.57;;;;;;;25.45;40.91;97918.06;4488364;32;20106;-78
2022/09/11 05:26:23;;;;;;;1.40;0.43;;;;;;;25.53;40.74;97920.72;4488000;31;20426;-78
2022/09/11 05:28:54;;;;;;;2.08;0.75;;;;;;;25.22;41.69;97923.13;4487190;32;20100;-78
2022/09/11 05:31:21;;;;;;;1.33;0.60;;;;;;;24.72;42.72;97923.06;4488283;31;20107;-78
2022/09/11 05:33:48;;;;;;;1.23;0.55;;;;;;;24.23;43.65;97928.00;4488002;31;20678;-78
2022/09/11 05:36:15;;;;;;;0.75;0.60;;;;;;;24.14;44.17;97923.66;4488404;31;20072;-78
2022/09/11 05:38:43;;;;;;;1.10;0.57;;;;;;;24.21;44.21;97924.69;4488317;31;20165;-78
2022/09/11 05:41:11;;;;;;;2.17;0.60;;;;;;;23.87;45.12;97924.59;4487880;31;20101;-78
2022/09/11 05:43:39;;;;;;;0.90;0.40;;;;;;;23.99;44.69;97914.63;4487146;32;20106;-78
2022/09/11 05:46:10;;;;;;;1.25;0.65;;;;;;;24.20;44.23;97921.22;4486781;32;20095;-78
2022/09/11 05:48:37;;;;;;;1.05;0.60;;;;;;;24.06;44.66;97924.44;4488404;31;20091;-78
2022/09/11 05:51:20;;;;;;;3.30;0.60;;;;;;;24.52;43.54;97915.38;4487054;31;20105;-78
2022/09/11 05:53:51;;;;;;;0.50;0.50;;;;;;;25.35;42.26;97922.66;4487862;31;20100;-78
2022/09/11 05:56:19;;;;;;;1.15;0.60;;;;;;;26.51;39.37;97915.44;4488250;31;20076;-78
2022/09/11 05:58:47;;;;;;;2.58;0.70;;;;;;;27.53;37.41;97922.44;4488160;31;20111;-78
2022/09/11 06:01:17;;;;;;;1.92;0.60;;;;;;;27.46;37.59;97912.75;4486609;31;20105;-78
2022/09/11 06:03:46;;;;;;;1.35;0.55;;;;;;;26.30;39.92;97923.06;4487438;31;20084;-78
2022/09/11 06:06:13;;;;;;;2.80;0.55;;;;;;;27.34;38.11;97915.81;4487988;31;20075;-78
2022/09/11 06:08:43;;;;;;;1.08;0.62;;;;;;;26.81;38.66;97912.06;4487862;31;20096;-78
2022/09/11 06:11:12;;;;;;;0.95;0.55;;;;;;;26.63;39.44;97919.38;4486946;31;20161;-78
2022/09/11 06:13:45;;;;;;;0.82;0.45;;;;;;;25.82;40.45;97922.06;4488021;31;20371;-78
2022/09/11 06:16:22;;;;;;;1.87;0.60;;;;;;;26.02;39.99;97918.13;4487705;31;20544;-78
2022/09/11 06:18:50;;;;;;;0.85;0.50;;;;;;;26.04;40.16;97923.25;4487910;31;20104;-78
2022/09/11 06:21:20;;;;;;;1.12;0.70;;;;;;;24.75;43.13;97925.38;4487593;31;20118;-78
2022/09/11 06:23:48;;;;;;;0.70;0.50;;;;;;;23.19;46.31;97919.81;4487932;31;20085;-78
2022/09/11 06:26:17;;;;;;;1.17;0.57;;;;;;;22.92;47.50;97928.53;4487981;31;20102;-78
2022/09/11 06:28:46;;;;;;;4.87;0.52;;;;;;;22.06;49.88;97922.53;4487584;31;20115;-78
2022/09/11 06:31:18;;;;;;;0.80;0.50;;;;;;;21.97;50.44;97920.72;4487914;31;20161;-78
2022/09/11 06:33:46;;;;;;;0.62;0.60;;;;;;;23.11;47.87;97927.59;4487964;31;20085;-78
2022/09/11 06:36:16;;;;;;;1.00;0.45;;;;;;;22.91;47.92;97929.50;4487573;31;20076;-78
2022/09/11 06:38:43;;;;;;;0.60;0.50;;;;;;;23.21;47.31;97931.00;4488056;31;20097;-78
2022/09/11 06:41:14;;;;;;;1.17;0.60;;;;;;;24.17;44.97;97923.34;4487854;31;20084;-78
2022/09/11 06:43:41;;;;;;;0.57;0.52;;;;;;;24.68;43.14;97922.56;4487294;31;20158;-78
2022/09/11 06:46:14;;;;;;;2.42;0.70;;;;;;;24.81;43.65;97925.56;4486702;32;20128;-78
2022/09/11 06:48:42;;;;;;;0.80;0.60;;;;;;;26.59;40.29;97920.72;4487738;31;20093;-78
2022/09/11 06:51:11;;;;;;;0.80;0.70;;;;;;;26.44;39.48;97922.41;4486286;31;20184;-78
2022/09/11 06:53:39;;;;;;;1.52;0.68;;;;;;;26.42;40.53;97927.03;4487721;31;20085;-78
2022/09/11 06:56:10;;;;;;;2.80;0.52;;;;;;;26.27;40.06;97918.13;4487749;31;20084;-78
2022/09/11 06:58:38;;;;;;;1.02;0.50;;;;;;;25.65;41.05;97923.88;4486459;32;20116;-78
2022/09/11 07:01:13;;;;;;;1.52;0.60;;;;;;;24.37;43.16;97919.56;4487726;31;20456;-78
2022/09/11 07:03:45;;;;;;;0.50;0.50;;;;;;;25.18;42.37;97929.69;4487465;31;20491;-78
2022/09/11 07:06:13;;;;;;;3.80;0.68;;;;;;;25.21;42.95;97920.66;4487782;31;20102;-78
2022/09/11 07:08:40;;;;;;;2.80;0.70;;;;;;;25.30;42.45;97924.94;4487600;31;20092;-78
2022/09/11 07:11:10;;;;;;;5.10;0.98;;;;;;;26.54;40.11;97930.97;4487372;31;20088;-78
2022/09/11 07:13:38;;;;;;;1.00;0.60;;;;;;;27.25;38.27;97926.59;4487654;31;20096;-78
2022/09/11 07:16:06;;;;;;;1.67;0.77;;;;;;;27.21;38.13;97931.41;4486431;32;20435;-78
2022/09/11 07:18:35;;;;;;;0.70;0.70;;;;;;;27.21;38.26;97922.63;4486912;31;20100;-78
2022/09/11 07:21:12;;;;;;;1.17;0.60;;;;;;;27.30;37.96;97932.19;4487560;31;20100;-78
2022/09/11 07:23:40;;;;;;;0.47;0.47;;;;;;;26.98;37.66;97935.78;4487708;31;20100;-78
2022/09/11 07:26:11;;;;;;;0.77;0.60;;;;;;;23.77;43.33;97922.03;4487177;31;20110;-78
2022/09/11 07:28:39;;;;;;;0.47;0.47;;;;;;;25.57;40.02;97927.31;4487687;31;20097;-78
2022/09/11 07:31:20;;;;;;;1.98;0.60;;;;;;;24.97;41.65;97923.97;4487507;31;20096;-78
2022/09/11 07:33:48;;;;;;;2.72;0.60;;;;;;;25.01;42.96;97934.09;4487461;31;20414;-78
2022/09/11 07:36:20;;;;;;;1.15;0.80;;;;;;;25.30;41.29;97924.94;4487565;31;20076;-78
2022/09/11 07:38:48;;;;;;;1.12;0.60;;;;;;;25.69;40.85;97922.53;4487220;31;20092;-78
2022/09/11 07:41:17;;;;;;;2.00;0.90;;;;;;;25.98;39.29;97903.59;4487440;31;20169;-78
2022/09/11 07:43:49;;;;;;;1.30;0.73;;;;;;;23.93;43.68;97919.56;4487346;31;20200;-78
2022/09/11 07:46:16;;;;;;;0.90;0.50;;;;;;;24.11;43.34;97911.59;4487118;31;20107;-78
2022/09/11 07:48:43;;;;;;;1.75;0.70;;;;;;;24.65;42.62;97909.66;4487396;31;20481;-78
2022/09/11 07:51:12;;;;;;;1.08;0.55;;;;;;;25.08;42.61;97924.53;4487321;31;20114;-78
2022/09/11 07:53:41;;;;;;;2.15;0.65;;;;;;;26.08;39.99;97919.28;4486835;31;20103;-78
2022/09/11 07:56:17;;;;;;;0.62;0.60;;;;;;;25.83;40.02;97919.28;4487372;31;20454;-78
2022/09/11 07:58:45;;;;;;;2.22;0.80;;;;;;;24.45;42.80;97921.41;4487301;31;20097;-78
2022/09/11 08:01:14;;;;;;;0.68;0.60;;;;;;;25.11;41.92;97919.94;4486901;31;20446;-78
2022/09/11 08:03:41;;;;;;;1.55;0.60;;;;;;;25.05;41.39;97929.31;4487221;31;20371;-78
2022/09/11 08:06:12;;;;;;;1.55;0.62;;;;;;;25.21;41.03;97931.22;4487295;31;20088;-78
2022/09/11 08:08:42;;;;;;;0.73;0.52;;;;;;;24.77;42.76;97929.50;4486813;31;20097;-78
2022/09/11 08:11:11;;;;;;;0.85;0.60;;;;;;;25.74;39.93;97928.22;4487142;31;20462;-78
2022/09/11 08:13:39;;;;;;;1.08;0.60;;;;;;;26.15;38.91;97926.38;4485597;32;20084;-78
2022/09/11 08:16:06;;;;;;;2.45;0.80;;;;;;;26.58;38.47;97932.28;4487165;31;20483;-78
2022/09/11 08:18:34;;;;;;;0.82;0.47;;;;;;;25.89;40.76;97936.31;4486849;31;20123;-78
2022/09/11 08:21:03;;;;;;;1.62;0.80;;;;;;;24.83;42.12;97921.94;4486670;31;20115;-78
2022/09/11 08:23:31;;;;;;;4.75;0.80;;;;;;;25.27;41.02;97938.47;4487006;31;20076;-78
2022/09/11 08:26:20;;;;;;;1.12;0.77;;;;;;;25.44;40.78;97929.63;4486323;31;20139;-78
2022/09/11 08:28:49;;;;;;;4.15;0.70;;;;;;;25.78;39.10;97939.25;4486546;31;20092;-78
2022/09/11 08:31:18;;;;;;;0.85;0.43;;;;;;;25.98;39.54;97940.59;4486892;31;20088;-78
2022/09/11 08:33:46;;;;;;;1.02;0.75;;;;;;;24.63;40.68;97934.53;4486804;31;20099;-79
2022/09/11 08:36:14;;;;;;;3.22;0.90;;;;;;;25.20;40.06;97942.72;4486508;31;20107;-78
2022/09/11 08:38:42;;;;;;;1.05;0.60;;;;;;;25.27;40.23;97935.84;4486863;31;20435;-78
2022/09/11 08:41:48;;;;;;;1.95;0.70;;;;;;;24.22;41.94;97939.53;4485595;32;20163;-78
2022/09/11 08:44:18;;;;;;;1.80;0.80;;;;;;;25.65;40.03;97950.28;4409729;32;20114;-78
2022/09/11 08:46:48;;;;;;;0.90;0.45;;;;;;;24.91;39.83;97941.28;4422388;32;20292;-78
2022/09/11 08:49:18;;;;;;;3.53;0.75;;;;;;;25.36;40.98;97954.19;4447736;32;20120;-78
2022/09/11 08:51:47;;;;;;;1.25;0.70;;;;;;;25.14;40.81;97951.31;4486606;31;20096;-78
2022/09/11 08:54:26;;;;;;;1.92;0.80;;;;;;;24.95;41.26;97947.91;4485350;32;20434;-78
2022/09/11 08:57:19;;;;;;;0.60;0.60;;;;;;;25.12;39.07;97948.00;4485075;32;20089;-78
2022/09/11 09:00:10;;;;;;;1.85;0.75;;;;;;;24.98;39.66;97950.22;4463825;31;20115;-78
2022/09/11 09:02:56;;;;;;;2.37;0.70;;;;;;;25.08;41.29;97950.13;4486327;31;20447;-78
2022/09/11 09:05:49;;;;;;;1.10;0.70;;;;;;;26.29;38.95;97943.41;4486553;31;20097;-78
2022/09/11 09:08:18;;;;;;;1.17;0.80;;;;;;;24.73;40.94;97944.00;4485258;32;20081;-78
2022/09/11 09:10:51;;;;;;;0.85;0.70;;;;;;;25.07;40.75;97940.53;4486068;31;20096;-78
2022/09/11 09:13:31;;;;;;;1.50;0.60;;;;;;;25.31;40.02;97945.09;4485275;32;20123;-78
2022/09/11 09:16:01;;;;;;;1.42;0.65;;;;;;;25.53;40.43;97939.22;4485266;32;20103;-78
2022/09/11 09:18:33;;;;;;;2.08;1.02;;;;;;;25.53;39.47;97926.00;4485718;31;20146;-78
2022/09/11 09:21:09;;;;;;;1.35;0.70;;;;;;;25.43;40.22;97930.59;4485181;32;20105;-78
2022/09/11 09:24:02;;;;;;;1.93;0.83;;;;;;;25.60;39.75;97936.72;4486025;31;20097;-78
2022/09/11 09:26:34;;;;;;;2.03;0.90;;;;;;;25.32;40.36;97933.56;4483505;32;20103;-78
2022/09/11 09:29:09;;;;;;;1.65;0.60;;;;;;;26.02;40.32;97930.50;4484880;32;20081;-78
2022/09/11 09:31:37;;;;;;;1.95;0.75;;;;;;;26.19;39.12;97930.34;4484495;32;20537;-78
2022/09/11 09:34:18;;;;;;;1.20;0.73;;;;;;;25.14;40.72;97938.94;4484834;32;20100;-78
2022/09/11 09:36:50;;;;;;;2.58;0.70;;;;;;;24.59;41.79;97941.94;4484864;32;20427;-78
2022/09/11 09:39:18;;;;;;;1.92;0.88;;;;;;;24.36;42.54;97933.75;4486701;32;20085;-78
2022/09/11 09:41:51;;;;;;;2.03;0.62;;;;;;;24.87;42.27;97939.09;4488294;31;20103;-79
2022/09/11 09:44:37;;;;;;;2.45;0.80;;;;;;;24.52;43.84;97935.63;4488322;32;20119;-79
2022/09/11 09:47:07;;;;;;;2.83;0.80;;;;;;;24.44;42.93;97936.41;4488246;31;20101;-79
2022/09/11 09:49:36;;;;;;;2.35;0.82;;;;;;;24.86;42.85;97934.81;4487155;32;20095;-79
2022/09/11 09:52:18;;;;;;;1.02;0.80;;;;;;;24.88;42.89;97940.75;4487696;31;20100;-78
2022/09/11 09:55:00;;;;;;;1.17;0.80;;;;;;;25.09;42.80;97934.16;4488063;31;20096;-79
2022/09/11 09:57:35;;;;;;;1.20;0.77;;;;;;;25.25;43.42;97937.81;4486912;32;20093;-78
2022/09/11 10:00:13;;;;;;;0.55;0.55;;;;;;;25.36;41.00;97942.78;4487561;31;20479;-78
2022/09/11 10:02:53;;;;;;;4.25;0.90;;;;;;;25.31;42.61;97942.47;4487146;32;20153;-78
2022/09/11 10:05:32;;;;;;;0.77;0.62;;;;;;;25.03;41.61;97947.12;4488179;31;20144;-78
2022/09/11 10:08:04;;;;;;;2.08;0.93;;;;;;;24.96;42.92;97938.16;4486592;32;20106;-78
2022/09/11 10:10:35;;;;;;;0.95;0.70;;;;;;;24.94;43.31;97943.59;4488049;31;20140;-78
2022/09/11 10:13:17;;;;;;;0.82;0.80;;;;;;;25.46;41.48;97938.19;4487819;31;20553;-78
2022/09/11 10:15:48;;;;;;;1.10;0.60;;;;;;;25.60;40.60;97934.91;4487984;31;20100;-78
2022/09/11 10:18:28;;;;;;;1.85;0.68;;;;;;;25.11;42.38;97931.34;4486565;32;20149;-78
2022/09/11 10:21:10;;;;;;;1.05;0.65;;;;;;;26.91;39.83;97929.56;4487614;31;20077;-78
2022/09/11 10:23:47;;;;;;;1.52;0.75;;;;;;;27.57;37.69;97933.53;4488048;31;20096;-79
2022/09/11 10:26:38;;;;;;;1.05;0.70;;;;;;;27.79;36.27;97927.44;4486838;32;20122;-78
2022/09/11 10:29:14;;;;;;;0.90;0.60;;;;;;;27.87;35.94;97924.75;4481256;31;20439;-78
2022/09/11 10:31:48;;;;;;;1.25;0.60;;;;;;;27.50;35.34;97920.16;4486796;32;20084;-78
2022/09/11 10:34:18;;;;;;;1.52;0.70;;;;;;;27.27;36.23;97912.19;4487670;31;20088;-78
2022/09/11 10:36:59;;;;;;;1.20;0.70;;;;;;;27.32;36.48;97919.59;4486891;32;20097;-78
2022/09/11 10:39:29;;;;;;;2.17;0.62;;;;;;;26.94;37.80;97921.25;4487951;31;20084;-78
2022/09/11 10:41:58;;;;;;;0.62;0.50;;;;;;;26.41;36.73;97914.81;4487500;31;20079;-78
2022/09/11 10:44:29;;;;;;;1.73;0.77;;;;;;;25.74;38.45;97919.47;4487723;31;20096;-78
2022/09/11 10:47:16;;;;;;;1.00;0.60;;;;;;;25.88;39.36;97922.25;4487861;31;20092;-78
2022/09/11 10:49:44;;;;;;;2.75;0.77;;;;;;;25.76;38.47;97920.13;4486015;32;20088;-78
2022/09/11 10:52:11;;;;;;;0.98;0.70;;;;;;;25.00;39.57;97908.66;4486511;31;20382;-78
2022/09/11 10:54:47;;;;;;;0.65;0.55;;;;;;;24.68;39.69;97913.81;4487755;31;20173;-78
2022/09/11 10:57:32;;;;;;;5.30;1.52;;;;;;;25.18;40.01;97908.56;4487870;31;20092;-78
2022/09/11 11:00:21;;;;;;;1.17;0.52;;;;;;;26.20;38.91;97917.94;4486707;32;20106;-78
2022/09/11 11:02:58;;;;;;;0.82;0.70;;;;;;;26.05;38.95;97898.44;4487459;31;20072;-78
2022/09/11 11:05:43;;;;;;;4.40;0.77;;;;;;;26.09;38.55;97905.06;4486540;32;20468;-78
2022/09/11 11:08:32;;;;;;;1.17;0.60;;;;;;;26.02;38.82;97906.72;4486573;32;20165;-78
2022/09/11 11:11:24;;;;;;;1.12;0.60;;;;;;;26.34;39.04;97911.13;4487314;31;20179;-78
2022/09/11 11:13:56;;;;;;;1.62;0.70;;;;;;;26.41;38.58;97905.06;4487660;31;20108;-78
2022/09/11 11:16:42;;;;;;;0.50;0.50;;;;;;;25.96;38.29;97910.88;4487399;31;20092;-78
2022/09/11 11:19:39;;;;;;;0.60;0.60;;;;;;;25.88;38.15;97916.16;4487639;31;20100;-78
2022/09/11 11:22:20;;;;;;;1.40;0.70;;;;;;;24.77;40.53;97908.38;4487657;31;20096;-78
2022/09/11 11:25:04;;;;;;;0.65;0.50;;;;;;;24.16;41.72;97913.78;4487299;31;20080;-78
2022/09/11 11:27:58;;;;;;;4.37;0.90;;;;;;;24.18;41.63;97914.47;4487579;31;20468;-78
2022/09/11 11:31:04;;;;;;;1.45;0.60;;;;;;;24.29;41.86;97916.00;4486066;31;20220;-78
2022/09/11 11:34:02;;;;;;;0.80;0.60;;;;;;;23.82;43.59;97914.53;4483564;32;20159;-78
2022/09/11 11:37:10;;;;;;;1.67;0.90;;;;;;;23.65;43.36;97915.34;4487618;31;20145;-78
2022/09/11 11:39:42;;;;;;;0.70;0.70;;;;;;;23.79;43.99;97921.88;4486445;32;20410;-78
2022/09/11 11:42:16;;;;;;;0.85;0.75;;;;;;;23.93;44.05;97927.47;4487518;31;20104;-78
2022/09/11 11:44:50;;;;;;;1.15;0.77;;;;;;;23.84;44.31;97914.38;4486016;32;20084;-78
2022/09/11 11:47:24;;;;;;;2.33;0.70;;;;;;;24.48;43.49;97919.31;4487394;32;20107;-78
2022/09/11 11:50:07;;;;;;;1.33;0.80;;;;;;;24.14;43.19;97923.66;4486360;32;20101;-78
2022/09/11 11:52:42;;;;;;;1.30;0.70;;;;;;;24.23;42.66;97907.72;4487207;31;20088;-78
2022/09/11 11:55:19;;;;;;;1.55;0.70;;;;;;;24.16;43.68;97921.69;4486257;32;20569;-78
2022/09/11 11:57:54;;;;;;;1.58;0.73;;;;;;;24.11;43.79;97921.31;4487401;31;20072;-78
2022/09/11 12:00:21;;;;;;;1.25;0.68;;;;;;;24.07;43.84;97917.34;4486136;31;20120;-78